Impacts TAF Board INFO
FOR SITUATIONAL AWARENESS. NOT TO BE USED FOR FLIGHT PLANNING PURPOSES.
IDs:

KIAH - Houston/Bush Intl, TX, US

Issued at 1015 UTC 20 Jan 2018
Updated at 1100 UTC 20 Jan 2018
Potential Impact None Slight Moderate High
Time<<20/23Z 21/00Z 21/01Z 21/02Z 21/03Z 21/04Z 21/05Z 21/06Z 21/07Z 21/08Z 21/09Z 21/10Z 21/11Z>>
Type PRVL PRVL PRVL PRVL PRVL PRVL PRVL PRVL PRVL PRVL PRVL PRVL PRVL
VIS >6 6 6 6 2 2 2 2 2 2 2 2 2
CIG 15 7 7 7 5 5 5 5 5 5 5 5 5
Cover OVC OVC OVC OVC OVC OVC OVC OVC OVC OVC OVC OVC OVC
FltCat MVFR IFR IFR IFR IFR IFR IFR IFR IFR IFR IFR IFR IFR
WX VCSH BR VCSH BR VCSH BR VCSH BR VCSH BR VCSH BR VCSH BR VCSH BR VCSH BR VCSH BR VCSH BR VCSH BR VCSH
WDir 170 160 160 160 160 160 160 160 160 160 160 160 160
WSpd 9 10 10 10 8 8 8 8 8 8 8 8 8
WGst 18 -- -- -- -- -- -- -- -- -- -- -- --

Raw TAF
KIAH 201015Z 2010/2112 00000KT 2SM BR VCSH OVC004
  TEMPO 2010/2013 1/4SM FG VV002
  FM201500 18007KT 4SM BR VCSH BKN007 OVC010
  FM201800 17009G18KT P6SM VCSH OVC015
  FM210000 16010KT 6SM BR VCSH OVC007
  FM210300 16008KT 2SM BR VCSH OVC005


METAR Board
Radar Display
Forecast Discussion

FOR SITUATIONAL AWARENESS. NOT TO BE USED FOR FLIGHT PLANNING PURPOSES.